createdAt,value
2018-01-17T00:08:03.636Z,86.4
2018-01-17T00:28:04.327Z,86.6
2018-01-17T00:38:30.101Z,86.4
2018-01-17T00:50:06.863Z,86.7
2018-01-17T01:29:28.020Z,86.8
2018-01-17T01:52:00.824Z,86.2
2018-01-17T02:13:42.202Z,87
2018-01-17T02:27:59.991Z,86.9
2018-01-17T02:51:53.211Z,86.7
2018-01-17T03:27:02.160Z,87.4
2018-01-17T03:42:10.683Z,87.5
2018-01-17T04:00:50.825Z,86.9
2018-01-17T04:19:20.952Z,86.1
2018-01-17T04:37:41.180Z,86.5
2018-01-17T04:45:55.797Z,87.1
2018-01-17T04:52:39.658Z,88.1
2018-01-17T05:07:27.912Z,90.1
2018-01-17T05:14:42.097Z,90.6
2018-01-17T05:38:45.829Z,90.2
2018-01-17T06:10:53.471Z,89.8
2018-01-17T06:26:52.962Z,89.6
2018-01-17T06:41:21.166Z,89.3
2018-01-17T06:54:48.545Z,89.1
2018-01-17T07:03:43.729Z,88.7
2018-01-17T07:11:28.514Z,88.2
2018-01-17T07:28:48.025Z,87.2
2018-01-17T07:49:09.134Z,87.5
2018-01-17T08:04:38.494Z,87.7
2018-01-17T08:17:25.500Z,87.9
2018-01-17T08:30:52.915Z,87.7
2018-01-17T08:48:32.578Z,87.1
2018-01-17T08:58:28.815Z,87.3
2018-01-17T09:13:57.405Z,87
2018-01-17T09:22:52.373Z,86.8
2018-01-17T09:38:10.704Z,85
2018-01-17T09:43:43.876Z,85.1
2018-01-17T09:56:31.291Z,84.7
2018-01-17T10:20:13.824Z,85.2
2018-01-17T10:37:02.760Z,85.3
2018-01-17T10:53:32.399Z,84.2
2018-01-17T11:09:30.844Z,83.4
2018-01-17T11:29:41.409Z,82.7
2018-01-17T11:58:47.121Z,82.3
2018-01-17T12:12:04.283Z,80.8
2018-01-17T12:20:28.820Z,79.8
2018-01-17T12:43:31.222Z,79.2
2018-01-17T13:11:25.451Z,78.1
2018-01-17T13:27:54.352Z,77.7
2018-01-17T13:49:35.494Z,77.4
2018-01-17T14:03:42.871Z,77.8
2018-01-17T14:40:01.860Z,79.3
2018-01-17T14:58:11.469Z,80.3
2018-01-17T15:09:27.776Z,81.4
2018-01-17T15:26:36.730Z,82.7
2018-01-17T15:45:26.608Z,83.4
2018-01-17T15:49:28.967Z,83.3
2018-01-17T16:07:39.010Z,83.2
2018-01-17T16:26:18.891Z,82
2018-01-17T16:42:07.207Z,82.2
2018-01-17T16:45:59.466Z,82.1
2018-01-17T16:51:32.964Z,81.2
2018-01-17T17:18:37.031Z,81.1
2018-01-17T17:27:41.813Z,81
2018-01-17T18:16:07.818Z,82
2018-01-17T18:29:04.590Z,83.7
2018-01-17T18:40:00.662Z,84.3
2018-01-17T18:59:11.220Z,84.4
2018-01-17T19:31:58.215Z,82.3
2018-01-17T19:50:18.069Z,81.4
2018-01-17T20:00:53.780Z,81
2018-01-17T20:08:07.708Z,80.8
2018-01-17T20:26:47.262Z,80.7
2018-01-17T20:29:09.176Z,80.5
2018-01-17T20:56:53.321Z,82.6
2018-01-17T21:09:10.019Z,82.9
2018-01-17T21:20:26.180Z,83
2018-01-17T21:45:59.684Z,83.9
2018-01-17T22:30:04.375Z,85.4
2018-01-17T23:15:06.736Z,85.8
